createdAt,value
2019-01-25T00:00:43.634Z,57.13
2019-01-25T00:03:15.862Z,50.27
2019-01-25T00:05:47.852Z,58.20
2019-01-25T00:08:19.899Z,56.87
2019-01-25T00:10:52.112Z,52.83
2019-01-25T00:13:24.272Z,55.27
2019-01-25T00:15:56.232Z,58.93
2019-01-25T00:18:29.440Z,53.60
2019-01-25T00:21:01.560Z,52.80
2019-01-25T00:23:33.495Z,54.47
2019-01-25T00:26:06.167Z,53.93
2019-01-25T00:28:38.175Z,59.10
2019-01-25T00:31:10.210Z,59.17
2019-01-25T00:33:42.296Z,59.77
2019-01-25T00:36:14.438Z,54.93
2019-01-25T00:38:46.411Z,61.10
2019-01-25T00:41:19.498Z,60.40
2019-01-25T00:43:51.629Z,51.67
2019-01-25T00:46:23.681Z,57.43
2019-01-25T00:48:56.613Z,61.33
2019-01-25T00:51:28.592Z,57.23
2019-01-25T00:54:00.492Z,57.73
2019-01-25T00:56:32.467Z,54.67
2019-01-25T00:59:05.026Z,54.57
2019-01-25T01:01:36.960Z,59.93
2019-01-25T01:04:09.037Z,53.17
2019-01-25T01:06:41.198Z,58.47
2019-01-25T01:09:13.900Z,51.43
2019-01-25T01:11:45.874Z,57.70
2019-01-25T01:14:17.930Z,65.80
2019-01-25T01:16:49.954Z,61.67
2019-01-25T01:19:21.991Z,61.93
2019-01-25T01:21:54.013Z,58.80
2019-01-25T01:24:25.966Z,60.37
2019-01-25T01:26:58.074Z,59.33
2019-01-25T01:29:29.948Z,59.87
2019-01-25T01:32:01.930Z,60.83
2019-01-25T01:34:33.969Z,61.03
2019-01-25T01:37:06.251Z,57.07
2019-01-25T01:39:38.285Z,55.67
2019-01-25T01:42:10.386Z,58.43
2019-01-25T01:44:42.371Z,60.10
2019-01-25T01:47:14.541Z,56.13
2019-01-25T01:49:46.635Z,59.63
2019-01-25T01:52:18.642Z,61.03
2019-01-25T01:54:50.609Z,60.50
2019-01-25T01:57:22.538Z,54.83
2019-01-25T01:59:54.447Z,64.23
2019-01-25T02:02:26.595Z,59.87
2019-01-25T02:04:58.555Z,60.67
2019-01-25T02:07:30.617Z,63.90
2019-01-25T02:10:02.651Z,58.80
2019-01-25T02:12:34.540Z,57.07
2019-01-25T02:15:08.663Z,48.50
2019-01-25T02:17:40.712Z,57.43
2019-01-25T02:20:17.399Z,57.27
2019-01-25T02:22:49.663Z,63.33
2019-01-25T02:25:21.643Z,60.73
2019-01-25T02:27:53.824Z,56.70
2019-01-25T02:30:27.775Z,58.43
2019-01-25T02:32:59.886Z,53.80
2019-01-25T02:35:31.846Z,62.83
2019-01-25T02:38:03.723Z,61.37
2019-01-25T02:40:38.808Z,59.57
2019-01-25T02:43:09.691Z,65.63
2019-01-25T02:45:41.722Z,61.00
2019-01-25T02:48:21.462Z,60.33
2019-01-25T02:50:53.387Z,55.20
2019-01-25T02:53:25.264Z,61.63
2019-01-25T02:55:57.153Z,70.70
2019-01-25T02:58:29.021Z,63.50
2019-01-25T03:01:00.961Z,67.40
2019-01-25T03:03:32.904Z,62.03
2019-01-25T03:06:05.330Z,57.10
2019-01-25T03:08:37.191Z,58.40
2019-01-25T03:11:08.991Z,64.23
2019-01-25T03:13:40.811Z,59.37
2019-01-25T03:16:13.896Z,56.03
2019-01-25T03:18:45.714Z,66.53
2019-01-25T03:21:17.596Z,58.77
2019-01-25T03:23:49.389Z,56.90
2019-01-25T03:26:21.349Z,59.33
2019-01-25T03:28:53.286Z,59.93
2019-01-25T03:31:25.061Z,64.57
2019-01-25T03:33:56.827Z,58.17
2019-01-25T03:36:28.657Z,58.53
2019-01-25T03:39:00.672Z,60.20
2019-01-25T03:41:32.636Z,51.23
2019-01-25T03:44:04.889Z,58.50
2019-01-25T03:46:36.708Z,59.73
2019-01-25T03:49:08.502Z,64.10
2019-01-25T03:51:40.438Z,61.57
2019-01-25T03:54:12.222Z,56.97
2019-01-25T03:56:44.017Z,59.40
2019-01-25T03:59:15.922Z,63.10
2019-01-25T04:01:47.877Z,60.90
2019-01-25T04:04:19.717Z,61.17
2019-01-25T04:06:51.546Z,58.37
2019-01-25T04:09:23.557Z,61.83
2019-01-25T04:11:55.511Z,65.33
2019-01-25T04:14:27.305Z,65.13
2019-01-25T04:16:59.135Z,57.97
2019-01-25T04:19:30.921Z,61.03
2019-01-25T04:22:02.747Z,58.70
2019-01-25T04:24:34.541Z,63.80
2019-01-25T04:27:06.642Z,61.60
2019-01-25T04:29:38.419Z,62.53
2019-01-25T04:32:10.247Z,63.20
2019-01-25T04:34:42.023Z,59.97
2019-01-25T04:37:13.840Z,64.57
2019-01-25T04:39:45.754Z,65.17
2019-01-25T04:42:17.537Z,58.87
2019-01-25T04:44:49.383Z,62.87
2019-01-25T04:47:29.496Z,68.97
2019-01-25T04:50:01.295Z,56.83
2019-01-25T04:52:33.385Z,59.67
2019-01-25T04:55:32.114Z,64.27
2019-01-25T04:58:22.477Z,63.87
2019-01-25T05:00:54.319Z,66.70
2019-01-25T05:03:26.275Z,63.97
2019-01-25T05:05:58.090Z,63.60
2019-01-25T05:08:30.020Z,64.10
2019-01-25T05:11:01.931Z,63.13
2019-01-25T05:13:33.858Z,60.97
2019-01-25T05:16:10.133Z,61.53
2019-01-25T05:18:42.030Z,56.40
2019-01-25T05:21:23.266Z,54.63
2019-01-25T05:23:55.312Z,64.40
2019-01-25T05:26:27.174Z,58.50
2019-01-25T05:28:58.998Z,55.23
2019-01-25T05:31:31.244Z,58.10
2019-01-25T05:34:03.055Z,61.17
2019-01-25T05:36:35.170Z,56.07
2019-01-25T05:39:09.517Z,68.33
2019-01-25T05:41:41.348Z,60.03
2019-01-25T05:44:13.177Z,56.67
2019-01-25T05:46:44.992Z,61.43
2019-01-25T05:49:18.407Z,53.43
2019-01-25T05:51:50.405Z,50.80
2019-01-25T05:54:22.397Z,62.47
2019-01-25T05:56:54.228Z,57.43
2019-01-25T05:59:26.202Z,57.50
2019-01-25T06:01:58.025Z,49.30
2019-01-25T06:04:36.377Z,79.37
2019-01-25T06:07:08.573Z,62.83
2019-01-25T06:09:40.394Z,60.57
2019-01-25T06:12:12.217Z,52.90
2019-01-25T06:14:44.361Z,57.03
2019-01-25T06:17:16.201Z,56.10
2019-01-25T06:19:48.007Z,56.77
2019-01-25T06:22:19.856Z,61.07
2019-01-25T06:24:51.984Z,52.20
2019-01-25T06:27:23.938Z,52.13
2019-01-25T06:29:55.725Z,50.77
2019-01-25T06:32:27.915Z,50.37
2019-01-25T06:34:59.844Z,60.03
2019-01-25T06:37:31.655Z,54.93
2019-01-25T06:40:03.768Z,51.97
2019-01-25T06:42:35.549Z,52.30
2019-01-25T06:45:08.654Z,54.67
2019-01-25T06:47:40.684Z,57.73
2019-01-25T06:50:12.693Z,59.50
2019-01-25T06:52:44.494Z,53.57
2019-01-25T06:55:16.309Z,54.73
2019-01-25T06:57:55.112Z,54.87
2019-01-25T07:00:29.162Z,55.03
2019-01-25T07:03:00.964Z,56.17
2019-01-25T07:05:33.021Z,51.47
2019-01-25T07:08:05.121Z,60.97
2019-01-25T07:10:37.120Z,60.70
2019-01-25T07:13:20.511Z,62.30
2019-01-25T07:15:53.004Z,56.73
2019-01-25T07:18:24.831Z,56.50
2019-01-25T07:20:56.803Z,57.63
2019-01-25T07:23:30.044Z,60.07
2019-01-25T07:26:02.158Z,77.53
2019-01-25T07:28:33.943Z,71.33
2019-01-25T07:31:06.098Z,55.60
2019-01-25T07:33:37.882Z,67.40
2019-01-25T07:36:09.987Z,62.70
2019-01-25T07:38:41.821Z,53.13
2019-01-25T07:41:13.605Z,55.83
2019-01-25T07:43:45.442Z,49.30
2019-01-25T07:46:17.245Z,57.80
2019-01-25T07:48:49.357Z,61.60
2019-01-25T07:51:21.416Z,63.17
2019-01-25T07:53:53.356Z,58.77
2019-01-25T07:56:25.335Z,55.57
2019-01-25T07:58:57.379Z,65.10
2019-01-25T08:01:29.343Z,58.23
2019-01-25T08:04:01.185Z,62.43
2019-01-25T08:06:33.354Z,61.03
2019-01-25T08:09:08.583Z,58.77
2019-01-25T08:11:40.530Z,65.10
2019-01-25T08:14:12.912Z,65.10
2019-01-25T08:16:45.283Z,64.93
2019-01-25T08:19:17.385Z,64.13
2019-01-25T08:21:54.771Z,63.90
2019-01-25T08:24:30.910Z,60.83
2019-01-25T08:27:13.326Z,64.07
2019-01-25T08:29:50.409Z,69.53
2019-01-25T08:32:26.978Z,64.57
2019-01-25T08:35:06.223Z,64.40
2019-01-25T08:37:41.999Z,72.43
2019-01-25T08:40:25.245Z,69.23
2019-01-25T08:43:01.144Z,68.40
2019-01-25T08:45:34.514Z,66.97
2019-01-25T08:48:08.075Z,64.10
2019-01-25T08:50:43.477Z,65.03
2019-01-25T08:53:25.530Z,62.30
2019-01-25T08:55:57.458Z,60.07
2019-01-25T08:58:42.894Z,67.07
2019-01-25T09:01:16.664Z,62.60
2019-01-25T09:03:48.578Z,62.80
2019-01-25T09:06:27.231Z,67.57
2019-01-25T09:09:00.504Z,75.27
2019-01-25T09:11:35.307Z,76.20
2019-01-25T09:14:11.168Z,70.80
2019-01-25T09:16:44.440Z,68.60
2019-01-25T09:19:21.216Z,66.70
2019-01-25T09:22:05.990Z,67.07
2019-01-25T09:24:40.482Z,72.63
2019-01-25T09:27:14.901Z,70.53
2019-01-25T09:29:47.859Z,83.67
2019-01-25T09:32:21.416Z,73.03
2019-01-25T09:35:04.062Z,66.80
2019-01-25T09:37:43.616Z,71.07
2019-01-25T09:40:27.137Z,74.50
2019-01-25T09:43:03.120Z,71.20
2019-01-25T09:45:37.976Z,72.17
2019-01-25T09:48:13.110Z,76.80
2019-01-25T09:50:52.663Z,77.23
2019-01-25T09:53:26.918Z,73.23
2019-01-25T09:56:06.761Z,77.40
2019-01-25T09:58:48.836Z,72.47
2019-01-25T10:01:23.704Z,78.47
2019-01-25T10:03:55.790Z,82.23
2019-01-25T10:06:29.301Z,78.13
2019-01-25T10:09:01.252Z,84.43
2019-01-25T10:11:39.259Z,76.37
2019-01-25T10:14:15.967Z,108.75
2019-01-25T10:17:02.216Z,100.40
2019-01-25T10:19:38.725Z,90.30
2019-01-25T10:22:11.705Z,81.03
2019-01-25T10:24:47.959Z,82.33
2019-01-25T10:27:21.931Z,75.90
2019-01-25T10:30:00.626Z,77.33
2019-01-25T10:32:35.339Z,74.70
2019-01-25T10:35:29.150Z,71.73
2019-01-25T10:38:10.001Z,96.67
2019-01-25T10:40:47.065Z,79.47
2019-01-25T10:43:19.157Z,84.03
2019-01-25T10:45:57.720Z,79.37
2019-01-25T10:48:29.642Z,76.13
2019-01-25T10:51:08.692Z,73.00
2019-01-25T10:53:43.232Z,73.87
2019-01-25T10:56:17.488Z,84.50
2019-01-25T10:58:49.488Z,78.47
2019-01-25T11:01:21.807Z,77.60
2019-01-25T11:03:56.380Z,78.10
2019-01-25T11:06:30.336Z,73.07
2019-01-25T11:09:08.158Z,101.47
2019-01-25T11:11:40.224Z,79.10
2019-01-25T11:14:12.376Z,70.83
2019-01-25T11:16:45.789Z,75.67
2019-01-25T11:19:17.989Z,92.33
2019-01-25T11:21:55.542Z,73.53
2019-01-25T11:24:28.785Z,71.47
2019-01-25T11:27:03.295Z,93.10
2019-01-25T11:29:40.038Z,70.60
2019-01-25T11:32:11.953Z,61.37
2019-01-25T11:34:50.671Z,64.13
2019-01-25T11:37:22.506Z,59.90
2019-01-25T11:39:54.356Z,56.20
2019-01-25T11:42:27.923Z,52.67
2019-01-25T11:44:59.935Z,64.47
2019-01-25T11:47:31.776Z,59.23
2019-01-25T11:50:04.094Z,52.73
2019-01-25T11:52:36.054Z,50.97
2019-01-25T11:55:10.266Z,54.03
2019-01-25T11:57:46.147Z,51.77
2019-01-25T12:00:24.288Z,44.57
2019-01-25T12:02:56.259Z,45.77
2019-01-25T12:08:23.078Z,40.57
2019-01-25T12:10:55.131Z,38.53
2019-01-25T12:13:27.214Z,37.20
2019-01-25T12:15:59.384Z,39.37
2019-01-25T12:18:31.572Z,33.57
2019-01-25T12:21:03.551Z,30.90
2019-01-25T12:23:35.508Z,24.80
2019-01-25T12:26:07.645Z,24.40
2019-01-25T12:28:39.570Z,22.90
2019-01-25T12:31:11.447Z,25.50
2019-01-25T12:33:43.498Z,24.07
2019-01-25T12:36:15.418Z,22.20
2019-01-25T12:38:47.327Z,22.10
2019-01-25T12:41:19.174Z,23.93
2019-01-25T12:43:52.654Z,22.83
2019-01-25T12:46:24.814Z,21.50
2019-01-25T12:48:57.862Z,20.37
2019-01-25T12:51:52.958Z,22.43
2019-01-25T12:54:25.063Z,22.87
2019-01-25T12:56:57.313Z,24.23
2019-01-25T12:59:29.416Z,23.10
2019-01-25T13:02:01.604Z,20.63
2019-01-25T13:04:36.680Z,20.43
2019-01-25T13:07:17.991Z,21.27
2019-01-25T13:09:51.597Z,27.10
2019-01-25T13:12:26.318Z,23.27
2019-01-25T13:15:06.893Z,21.63
2019-01-25T13:17:40.265Z,20.00
2019-01-25T13:20:20.924Z,19.37
2019-01-25T13:22:54.564Z,21.87
2019-01-25T13:25:30.915Z,19.80
2019-01-25T13:28:02.895Z,17.90
2019-01-25T13:30:35.041Z,19.03
2019-01-25T13:33:07.182Z,20.90
2019-01-25T13:35:39.320Z,20.10
2019-01-25T13:38:11.337Z,19.57
2019-01-25T13:40:43.521Z,17.33
2019-01-25T13:43:15.457Z,19.20
2019-01-25T13:45:48.794Z,19.07
2019-01-25T13:48:20.955Z,22.53
2019-01-25T13:50:53.094Z,35.73
2019-01-25T13:53:27.952Z,18.37
2019-01-25T13:55:59.818Z,15.37
2019-01-25T13:58:34.734Z,16.87
2019-01-25T14:01:06.731Z,15.73
2019-01-25T14:03:38.619Z,15.33
2019-01-25T14:06:10.662Z,15.77
2019-01-25T14:08:45.873Z,16.03
2019-01-25T14:11:17.985Z,14.90
2019-01-25T14:13:50.149Z,13.43
2019-01-25T14:16:22.242Z,13.17
2019-01-25T14:18:54.199Z,14.80
2019-01-25T14:21:26.326Z,17.70
2019-01-25T14:23:58.293Z,12.97
2019-01-25T14:26:30.449Z,12.73
2019-01-25T14:29:02.958Z,15.27
2019-01-25T14:31:34.905Z,14.50
2019-01-25T14:34:08.295Z,13.00
2019-01-25T14:36:40.160Z,11.47
2019-01-25T14:39:12.173Z,11.80
2019-01-25T14:41:44.216Z,10.87
2019-01-25T14:44:16.269Z,10.17
2019-01-25T14:46:48.107Z,12.27
2019-01-25T14:49:21.736Z,10.83
2019-01-25T14:51:53.976Z,10.50
2019-01-25T14:54:25.810Z,11.53
2019-01-25T14:56:59.593Z,11.33
2019-01-25T14:59:31.721Z,10.90
2019-01-25T15:02:03.644Z,10.03
2019-01-25T15:04:35.525Z,11.17
2019-01-25T15:07:07.528Z,9.57
2019-01-25T15:09:40.967Z,11.27
2019-01-25T15:12:13.045Z,9.20
2019-01-25T15:14:45.144Z,11.10
2019-01-25T15:17:17.371Z,9.40
2019-01-25T15:19:49.255Z,10.63
2019-01-25T15:22:21.147Z,11.90
2019-01-25T15:24:53.161Z,10.80
2019-01-25T15:27:31.109Z,11.80
2019-01-25T15:30:04.171Z,11.83
2019-01-25T15:32:37.635Z,10.97
2019-01-25T15:35:12.091Z,10.23
2019-01-25T15:37:44.438Z,11.10
2019-01-25T15:40:17.420Z,11.97
2019-01-25T15:42:49.424Z,9.60
2019-01-25T15:45:21.973Z,11.07
2019-01-25T15:47:54.229Z,12.00
2019-01-25T15:50:32.098Z,10.90
2019-01-25T15:53:04.138Z,10.67
2019-01-25T15:55:36.735Z,11.53
2019-01-25T15:58:08.870Z,11.07
2019-01-25T16:00:40.784Z,11.23
2019-01-25T16:03:12.636Z,10.23
2019-01-25T16:05:44.563Z,10.43
2019-01-25T16:08:16.429Z,11.20
2019-01-25T16:10:48.410Z,13.63
2019-01-25T16:13:20.297Z,16.17
2019-01-25T16:15:52.306Z,11.07
2019-01-25T16:18:24.571Z,15.43
2019-01-25T16:20:56.733Z,11.03
2019-01-25T16:23:28.777Z,10.23
2019-01-25T16:26:00.924Z,9.70
2019-01-25T16:28:32.987Z,12.37
2019-01-25T16:31:05.192Z,10.27
2019-01-25T16:33:37.426Z,12.10
2019-01-25T16:36:09.641Z,12.37
2019-01-25T16:38:41.977Z,15.00
2019-01-25T16:41:13.960Z,14.37
2019-01-25T16:43:46.315Z,13.93
2019-01-25T16:46:18.518Z,14.43
2019-01-25T16:48:51.405Z,13.23
2019-01-25T16:51:24.017Z,15.57
2019-01-25T16:53:56.020Z,14.23
2019-01-25T16:56:27.923Z,13.90
2019-01-25T16:58:59.962Z,14.90
2019-01-25T17:01:32.140Z,15.13
2019-01-25T17:04:05.078Z,15.03
2019-01-25T17:06:37.004Z,12.27
2019-01-25T17:09:12.839Z,16.40
2019-01-25T17:11:44.730Z,14.93
2019-01-25T17:14:16.790Z,15.50
2019-01-25T17:16:48.825Z,15.60
2019-01-25T17:19:20.735Z,14.57
2019-01-25T17:21:52.605Z,15.20
2019-01-25T17:24:24.628Z,15.50
2019-01-25T17:26:56.517Z,15.83
2019-01-25T17:29:28.341Z,17.90
2019-01-25T17:32:00.315Z,19.60
2019-01-25T17:34:32.640Z,17.93
2019-01-25T17:37:04.645Z,16.77
2019-01-25T17:39:36.746Z,16.70
2019-01-25T17:42:08.933Z,17.47
2019-01-25T17:44:41.479Z,15.63
2019-01-25T17:47:15.233Z,19.07
2019-01-25T17:49:47.430Z,16.43
2019-01-25T17:52:21.599Z,17.07
2019-01-25T17:54:55.039Z,17.97
2019-01-25T17:57:30.479Z,14.10
2019-01-25T18:00:02.351Z,15.37
2019-01-25T18:02:34.618Z,18.60
2019-01-25T18:05:07.174Z,15.80
2019-01-25T18:07:39.024Z,17.33
2019-01-25T18:10:14.974Z,17.13
2019-01-25T18:12:48.328Z,15.70
2019-01-25T18:15:22.799Z,15.93
2019-01-25T18:17:54.798Z,14.40
2019-01-25T18:20:26.753Z,13.57
2019-01-25T18:22:58.861Z,13.37
2019-01-25T18:25:58.886Z,15.93
2019-01-25T18:28:39.897Z,14.23
2019-01-25T18:31:21.447Z,15.50
2019-01-25T18:33:53.678Z,14.17
2019-01-25T18:36:25.700Z,16.83
2019-01-25T18:39:00.688Z,14.10
2019-01-25T18:41:32.852Z,13.83
2019-01-25T18:44:09.462Z,13.73
2019-01-25T18:46:42.929Z,13.80
2019-01-25T18:49:14.842Z,13.53
2019-01-25T18:51:47.180Z,12.87
2019-01-25T18:54:19.199Z,14.70
2019-01-25T18:56:53.144Z,14.37
2019-01-25T18:59:25.150Z,14.13
2019-01-25T19:02:02.146Z,15.73
2019-01-25T19:04:34.167Z,12.57
2019-01-25T19:07:06.155Z,15.83
2019-01-25T19:09:39.302Z,13.10
2019-01-25T19:12:16.995Z,12.63
2019-01-25T19:14:49.022Z,15.40
2019-01-25T19:17:21.129Z,12.03
2019-01-25T19:19:53.309Z,12.33
2019-01-25T19:22:28.577Z,11.77
2019-01-25T19:25:00.632Z,13.87
2019-01-25T19:27:32.680Z,13.67
2019-01-25T19:30:06.498Z,13.23
2019-01-25T19:32:38.479Z,12.73
2019-01-25T19:35:12.990Z,14.33
2019-01-25T19:37:44.945Z,13.77
2019-01-25T19:40:18.492Z,12.53
2019-01-25T19:42:50.587Z,12.07
2019-01-25T19:45:23.085Z,12.30
2019-01-25T19:47:55.060Z,12.67
2019-01-25T19:50:27.530Z,12.43
2019-01-25T19:52:59.696Z,11.10
2019-01-25T19:55:32.014Z,9.87
2019-01-25T19:58:06.964Z,11.57
2019-01-25T20:00:41.201Z,10.73
2019-01-25T20:03:13.549Z,12.97
2019-01-25T20:05:47.303Z,12.73
2019-01-25T20:08:19.291Z,11.03
2019-01-25T20:10:51.533Z,10.33
2019-01-25T20:13:23.398Z,10.07
2019-01-25T20:15:55.498Z,10.20
2019-01-25T20:18:27.400Z,10.40
2019-01-25T20:20:59.521Z,9.30
2019-01-25T20:23:31.543Z,11.13
2019-01-25T20:26:03.906Z,11.37
2019-01-25T20:28:38.705Z,11.07
2019-01-25T20:31:15.702Z,11.73
2019-01-25T20:33:49.976Z,10.77
2019-01-25T20:36:22.315Z,11.40
2019-01-25T20:38:55.708Z,10.07
2019-01-25T20:41:27.631Z,9.63
2019-01-25T20:43:59.732Z,10.63
2019-01-25T20:46:31.728Z,12.30
2019-01-25T20:49:03.863Z,12.33
2019-01-25T20:51:35.797Z,12.00
2019-01-25T20:54:08.133Z,12.03
2019-01-25T20:56:40.263Z,12.67
2019-01-25T20:59:12.346Z,12.07
2019-01-25T21:01:44.437Z,10.47
2019-01-25T21:04:16.688Z,12.97
2019-01-25T21:06:50.403Z,11.27
2019-01-25T21:09:22.344Z,13.93
2019-01-25T21:11:54.415Z,11.63
2019-01-25T21:14:26.864Z,11.87
2019-01-25T21:16:58.908Z,11.80
2019-01-25T21:19:31.116Z,9.97
2019-01-25T21:22:03.064Z,9.57
2019-01-25T21:24:34.930Z,11.83
2019-01-25T21:27:07.030Z,11.20
2019-01-25T21:29:39.048Z,10.87
2019-01-25T21:32:11.131Z,8.43
2019-01-25T21:34:43.521Z,8.93
2019-01-25T21:37:15.598Z,9.87
2019-01-25T21:39:50.184Z,10.17
2019-01-25T21:42:22.275Z,9.67
2019-01-25T21:44:54.246Z,8.90
2019-01-25T21:47:26.084Z,8.90
2019-01-25T21:49:58.339Z,8.57
2019-01-25T21:52:30.631Z,9.43
2019-01-25T21:55:02.683Z,9.30
2019-01-25T21:57:34.858Z,8.10
2019-01-25T22:00:18.847Z,8.70
2019-01-25T22:02:51.048Z,7.70
2019-01-25T22:05:23.240Z,10.13
2019-01-25T22:07:55.270Z,9.70
2019-01-25T22:10:40.417Z,8.40
2019-01-25T22:13:12.332Z,9.13
2019-01-25T22:15:50.730Z,8.33
2019-01-25T22:18:18.234Z,9.30
2019-01-25T22:20:50.271Z,12.10
2019-01-25T22:23:22.407Z,8.43
2019-01-25T22:25:54.588Z,9.73
2019-01-25T22:28:26.465Z,8.07
2019-01-25T22:30:58.568Z,8.60
2019-01-25T22:33:30.455Z,9.60
2019-01-25T22:36:02.365Z,8.27
2019-01-25T22:38:34.235Z,8.23
2019-01-25T22:41:06.188Z,10.73
2019-01-25T22:43:38.027Z,9.23
2019-01-25T22:46:09.838Z,7.97
2019-01-25T22:48:41.931Z,8.87
2019-01-25T22:51:13.808Z,8.60
2019-01-25T22:53:45.650Z,9.03
2019-01-25T22:56:17.594Z,10.03
2019-01-25T22:58:49.609Z,8.97
2019-01-25T23:01:33.831Z,11.37
2019-01-25T23:04:52.463Z,10.90
2019-01-25T23:07:30.889Z,11.53
2019-01-25T23:10:16.148Z,12.57
2019-01-25T23:12:48.214Z,11.47
2019-01-25T23:15:20.754Z,10.90
2019-01-25T23:17:52.821Z,12.83
2019-01-25T23:20:24.785Z,10.73
2019-01-25T23:22:56.760Z,13.27
2019-01-25T23:25:28.610Z,14.50
2019-01-25T23:28:00.465Z,12.83
2019-01-25T23:30:32.549Z,13.37
2019-01-25T23:33:04.548Z,14.27
2019-01-25T23:35:36.652Z,13.50
2019-01-25T23:38:08.558Z,13.43
2019-01-25T23:40:40.567Z,14.70
2019-01-25T23:43:12.441Z,13.47
2019-01-25T23:45:44.330Z,14.80
2019-01-25T23:48:16.346Z,14.60
2019-01-25T23:50:48.373Z,15.40
2019-01-25T23:53:20.343Z,15.83
2019-01-25T23:55:52.189Z,16.50
2019-01-25T23:58:24.125Z,17.23
